Time,TemperatureF,DewpointF,PressureIn,WindDirection,WindDirectionDegrees,WindSpeedMPH,WindSpeedGustMPH,Humidity,HourlyPrecipIn,Conditions,Clouds,dailyrainin,SoftwareType,DateUTC
2013-03-22 00:00:00,15.0,10.5,30.36,NW,315,0.0,0.0,82,0.00,,,-99.99,Weather View 32 v60,2013-03-22 05:00:00,
2013-03-22 00:30:00,15.0,10.5,30.37,NNW,338,0.0,0.0,82,0.00,,,-99.99,Weather View 32 v60,2013-03-22 05:30:00,
2013-03-22 01:00:00,14.0,9.0,30.36,North,0,0.0,0.0,80,0.00,,,-99.99,Weather View 32 v60,2013-03-22 06:00:00,
2013-03-22 01:30:00,13.0,8.0,30.36,NE,45,0.0,0.0,80,0.00,,,-99.99,Weather View 32 v60,2013-03-22 06:30:00,
2013-03-22 02:00:00,14.0,9.3,30.36,NNE,22,0.0,0.0,81,0.00,,,-99.99,Weather View 32 v60,2013-03-22 07:00:00,
2013-03-22 02:30:00,14.0,9.3,30.36,NNE,22,0.0,0.0,81,0.00,,,-99.99,Weather View 32 v60,2013-03-22 07:30:00,
2013-03-22 03:00:00,14.0,9.5,30.37,NW,315,0.0,0.0,82,0.00,,,-99.99,Weather View 32 v60,2013-03-22 08:00:00,
2013-03-22 03:30:00,14.0,9.3,30.37,NW,315,0.0,0.0,81,0.00,,,-99.99,Weather View 32 v60,2013-03-22 08:30:00,
2013-03-22 04:00:00,13.0,8.5,30.37,NW,315,0.0,0.0,82,0.00,,,-99.99,Weather View 32 v60,2013-03-22 09:00:00,
2013-03-22 04:30:00,11.0,6.3,30.37,North,0,0.0,0.0,81,0.00,,,-99.99,Weather View 32 v60,2013-03-22 09:30:00,
2013-03-22 05:00:00,9.0,4.9,30.37,North,0,0.0,0.0,83,0.00,,,-99.99,Weather View 32 v60,2013-03-22 10:00:00,
2013-03-22 05:30:00,9.0,5.4,30.37,NNW,338,0.0,0.0,85,0.00,,,-99.99,Weather View 32 v60,2013-03-22 10:30:00,
2013-03-22 06:00:00,10.0,6.7,30.38,North,0,0.0,0.0,86,0.00,,,-99.99,Weather View 32 v60,2013-03-22 11:00:00,
2013-03-22 06:30:00,8.0,4.4,30.38,NNW,338,0.0,0.0,85,0.00,,,-99.99,Weather View 32 v60,2013-03-22 11:30:00,
2013-03-22 07:00:00,7.0,3.7,30.37,NNW,338,0.0,0.0,86,0.00,,,-99.99,Weather View 32 v60,2013-03-22 12:00:00,
2013-03-22 07:30:00,8.0,4.9,30.37,NNE,22,0.0,0.0,87,0.00,,,-99.99,Weather View 32 v60,2013-03-22 12:30:00,
2013-03-22 08:00:00,11.0,7.9,30.37,NNE,22,0.0,0.0,87,0.00,,,-99.99,Weather View 32 v60,2013-03-22 13:00:00,
2013-03-22 08:30:00,14.0,10.9,30.37,NE,45,0.0,0.0,87,0.00,,,-99.99,Weather View 32 v60,2013-03-22 13:30:00,
2013-03-22 09:00:00,18.0,14.0,30.38,East,90,0.0,0.0,84,0.00,,,-99.99,Weather View 32 v60,2013-03-22 14:00:00,
2013-03-22 09:30:00,21.0,13.7,30.37,NW,315,0.0,0.0,73,0.00,,,-99.99,Weather View 32 v60,2013-03-22 14:30:00,
2013-03-22 10:00:00,25.0,16.9,30.37,ENE,68,0.0,0.0,71,0.00,,,-99.99,Weather View 32 v60,2013-03-22 15:00:00,
2013-03-22 10:30:00,29.0,18.7,30.36,WNW,292,0.0,0.0,65,0.00,,,-99.99,Weather View 32 v60,2013-03-22 15:30:00,
2013-03-22 11:00:00,29.0,17.6,30.36,SE,135,0.0,0.0,62,0.00,,,-99.99,Weather View 32 v60,2013-03-22 16:00:00,
2013-03-22 11:30:00,33.0,19.8,30.36,East,90,0.0,0.0,58,0.00,,,-99.99,Weather View 32 v60,2013-03-22 16:30:00,
2013-03-22 12:00:00,31.0,17.5,30.35,SW,225,0.0,0.0,57,0.00,,,-99.99,Weather View 32 v60,2013-03-22 17:00:00,
2013-03-22 12:30:00,32.0,17.6,30.35,SW,225,0.0,0.0,55,0.00,,,-99.99,Weather View 32 v60,2013-03-22 17:30:00,
2013-03-22 13:00:00,34.0,18.6,30.34,West,270,0.0,1.0,53,0.00,,,-99.99,Weather View 32 v60,2013-03-22 18:00:00,
2013-03-22 13:30:00,36.0,18.7,30.33,NNE,22,0.0,1.0,49,0.00,,,-99.99,Weather View 32 v60,2013-03-22 18:30:00,
2013-03-22 14:00:00,37.0,18.1,30.32,ENE,68,0.0,3.0,46,0.00,,,-99.99,Weather View 32 v60,2013-03-22 19:00:00,
2013-03-22 14:30:00,39.0,19.9,30.31,ESE,112,0.0,3.0,46,0.00,,,-99.99,Weather View 32 v60,2013-03-22 19:30:00,
2013-03-22 15:00:00,37.0,17.6,30.30,NE,45,0.0,4.0,45,0.00,,,-99.99,Weather View 32 v60,2013-03-22 20:00:00,
2013-03-22 15:30:00,37.0,17.6,30.30,North,0,0.0,5.0,45,0.00,,,-99.99,Weather View 32 v60,2013-03-22 20:30:00,
2013-03-22 16:00:00,38.0,18.5,30.31,NE,45,0.0,5.0,45,0.00,,,-99.99,Weather View 32 v60,2013-03-22 21:00:00,
2013-03-22 16:30:00,38.0,17.5,30.32,NE,45,0.0,4.0,43,0.00,,,-99.99,Weather View 32 v60,2013-03-22 21:30:00,
2013-03-22 17:00:00,38.0,18.0,30.32,ENE,68,0.0,3.0,44,0.00,,,-99.99,Weather View 32 v60,2013-03-22 22:00:00,
2013-03-22 17:30:00,37.0,17.1,30.33,NE,45,0.0,3.0,44,0.00,,,-99.99,Weather View 32 v60,2013-03-22 22:30:00,
2013-03-22 18:00:00,36.0,16.7,30.33,NNE,22,0.0,0.0,45,0.00,,,-99.99,Weather View 32 v60,2013-03-22 23:00:00,
2013-03-22 18:30:00,35.0,16.3,30.34,NNW,338,0.0,0.0,46,0.00,,,-99.99,Weather View 32 v60,2013-03-22 23:30:00,
2013-03-22 19:00:00,32.0,15.4,30.34,East,90,0.0,0.0,50,0.00,,,-99.99,Weather View 32 v60,2013-03-23 00:00:00,
2013-03-22 19:30:00,30.0,17.0,30.35,SSE,158,0.0,1.0,58,0.00,,,-99.99,Weather View 32 v60,2013-03-23 00:30:00,
2013-03-22 20:00:00,29.0,17.6,30.35,South,180,0.0,1.0,62,0.00,,,-99.99,Weather View 32 v60,2013-03-23 01:00:00,
2013-03-22 20:30:00,28.0,18.1,30.36,South,180,0.0,0.0,66,0.00,,,-99.99,Weather View 32 v60,2013-03-23 01:30:00,
2013-03-22 21:00:00,27.0,18.5,30.36,SW,225,0.0,0.0,70,0.00,,,-99.99,Weather View 32 v60,2013-03-23 02:00:00,
2013-03-22 21:30:00,25.0,17.6,30.37,SW,225,0.0,0.0,73,0.00,,,-99.99,Weather View 32 v60,2013-03-23 02:30:00,
2013-03-22 22:00:00,23.0,16.3,30.38,SE,135,0.0,0.0,75,0.00,,,-99.99,Weather View 32 v60,2013-03-23 03:00:00,
2013-03-22 22:30:00,22.0,15.6,30.38,NE,45,0.0,0.0,76,0.00,,,-99.99,Weather View 32 v60,2013-03-23 03:30:00,
2013-03-22 23:00:00,20.0,14.2,30.38,NE,45,0.0,0.0,78,0.00,,,-99.99,Weather View 32 v60,2013-03-23 04:00:00,
2013-03-22 23:30:00,19.0,14.1,30.39,South,180,0.0,0.0,81,0.00,,,-99.99,Weather View 32 v60,2013-03-23 04:30:00,